sensor_id;sensor_type;location;lat;lon;timestamp;P1;durP1;ratioP1;P2;durP2;ratioP2
60098;SDS011;62818;49.394;8.686;2023-06-10T00:00:26;6.53;;;3.22;;
60098;SDS011;62818;49.394;8.686;2023-06-10T00:01:27;6.15;;;2.67;;
60098;SDS011;62818;49.394;8.686;2023-06-10T00:02:28;5.30;;;2.90;;
60098;SDS011;62818;49.394;8.686;2023-06-10T00:03:29;6.87;;;3.80;;
60098;SDS011;62818;49.394;8.686;2023-06-10T00:04:29;4.83;;;3.23;;
60098;SDS011;62818;49.394;8.686;2023-06-10T00:05:30;5.90;;;3.13;;
60098;SDS011;62818;49.394;8.686;2023-06-10T00:06:31;3.97;;;2.95;;
60098;SDS011;62818;49.394;8.686;2023-06-10T00:07:37;4.13;;;2.75;;
60098;SDS011;62818;49.394;8.686;2023-06-10T00:08:38;3.67;;;3.27;;
60098;SDS011;62818;49.394;8.686;2023-06-10T00:10:40;4.72;;;2.95;;
60098;SDS011;62818;49.394;8.686;2023-06-10T00:11:41;8.07;;;4.25;;
60098;SDS011;62818;49.394;8.686;2023-06-10T00:12:42;4.07;;;3.28;;
60098;SDS011;62818;49.394;8.686;2023-06-10T00:13:43;4.15;;;3.33;;
60098;SDS011;62818;49.394;8.686;2023-06-10T00:14:44;5.57;;;2.90;;
60098;SDS011;62818;49.394;8.686;2023-06-10T00:15:45;5.82;;;2.83;;
60098;SDS011;62818;49.394;8.686;2023-06-10T00:16:45;4.23;;;3.10;;
60098;SDS011;62818;49.394;8.686;2023-06-10T00:17:46;4.40;;;2.80;;
60098;SDS011;62818;49.394;8.686;2023-06-10T00:18:46;6.23;;;2.50;;
60098;SDS011;62818;49.394;8.686;2023-06-10T00:19:47;3.47;;;2.47;;
60098;SDS011;62818;49.394;8.686;2023-06-10T00:20:47;6.63;;;3.00;;
60098;SDS011;62818;49.394;8.686;2023-06-10T00:21:52;4.32;;;2.65;;
60098;SDS011;62818;49.394;8.686;2023-06-10T00:22:53;6.53;;;3.10;;
60098;SDS011;62818;49.394;8.686;2023-06-10T00:23:54;4.57;;;2.77;;
60098;SDS011;62818;49.394;8.686;2023-06-10T00:25:59;3.53;;;2.67;;
60098;SDS011;62818;49.394;8.686;2023-06-10T00:27:00;5.43;;;3.00;;
60098;SDS011;62818;49.394;8.686;2023-06-10T00:28:00;4.27;;;2.87;;
60098;SDS011;62818;49.394;8.686;2023-06-10T00:29:01;3.40;;;2.67;;
60098;SDS011;62818;49.394;8.686;2023-06-10T00:30:04;5.28;;;2.88;;
60098;SDS011;62818;49.394;8.686;2023-06-10T00:31:06;5.53;;;2.70;;
60098;SDS011;62818;49.394;8.686;2023-06-10T00:32:07;5.30;;;3.20;;
60098;SDS011;62818;49.394;8.686;2023-06-10T00:33:08;3.03;;;2.58;;
60098;SDS011;62818;49.394;8.686;2023-06-10T00:35:10;5.68;;;2.50;;
60098;SDS011;62818;49.394;8.686;2023-06-10T00:36:10;5.33;;;3.33;;
60098;SDS011;62818;49.394;8.686;2023-06-10T00:37:11;6.40;;;3.43;;
60098;SDS011;62818;49.394;8.686;2023-06-10T00:38:12;4.67;;;3.40;;
60098;SDS011;62818;49.394;8.686;2023-06-10T00:39:14;4.00;;;3.33;;
60098;SDS011;62818;49.394;8.686;2023-06-10T00:40:16;4.80;;;3.03;;
60098;SDS011;62818;49.394;8.686;2023-06-10T00:41:17;5.20;;;2.70;;
60098;SDS011;62818;49.394;8.686;2023-06-10T00:42:17;3.58;;;2.92;;
60098;SDS011;62818;49.394;8.686;2023-06-10T00:43:19;4.90;;;3.28;;
60098;SDS011;62818;49.394;8.686;2023-06-10T00:44:19;3.27;;;2.50;;
60098;SDS011;62818;49.394;8.686;2023-06-10T00:45:20;4.40;;;2.60;;
60098;SDS011;62818;49.394;8.686;2023-06-10T00:46:21;8.57;;;5.13;;
60098;SDS011;62818;49.394;8.686;2023-06-10T00:47:25;8.23;;;4.53;;
60098;SDS011;62818;49.394;8.686;2023-06-10T00:48:26;5.95;;;3.13;;
60098;SDS011;62818;49.394;8.686;2023-06-10T00:49:27;7.75;;;3.30;;
60098;SDS011;62818;49.394;8.686;2023-06-10T00:50:28;6.00;;;2.70;;
60098;SDS011;62818;49.394;8.686;2023-06-10T00:51:29;3.95;;;2.83;;
60098;SDS011;62818;49.394;8.686;2023-06-10T00:52:29;4.40;;;3.10;;
60098;SDS011;62818;49.394;8.686;2023-06-10T00:53:30;3.38;;;2.75;;
60098;SDS011;62818;49.394;8.686;2023-06-10T00:54:32;3.83;;;3.05;;
60098;SDS011;62818;49.394;8.686;2023-06-10T00:55:33;4.60;;;3.25;;
60098;SDS011;62818;49.394;8.686;2023-06-10T00:56:35;5.75;;;3.00;;
60098;SDS011;62818;49.394;8.686;2023-06-10T00:58:37;3.38;;;3.00;;
60098;SDS011;62818;49.394;8.686;2023-06-10T00:59:38;7.17;;;4.83;;
60098;SDS011;62818;49.394;8.686;2023-06-10T01:00:41;4.20;;;3.30;;
60098;SDS011;62818;49.394;8.686;2023-06-10T01:01:42;4.85;;;3.10;;
60098;SDS011;62818;49.394;8.686;2023-06-10T01:02:43;3.72;;;2.65;;
60098;SDS011;62818;49.394;8.686;2023-06-10T01:03:44;6.23;;;2.80;;
60098;SDS011;62818;49.394;8.686;2023-06-10T01:04:45;3.83;;;2.70;;
60098;SDS011;62818;49.394;8.686;2023-06-10T01:05:50;3.35;;;2.70;;
60098;SDS011;62818;49.394;8.686;2023-06-10T01:07:05;4.30;;;2.90;;
60098;SDS011;62818;49.394;8.686;2023-06-10T01:08:37;3.50;;;2.80;;
60098;SDS011;62818;49.394;8.686;2023-06-10T01:11:12;4.13;;;2.85;;
60098;SDS011;62818;49.394;8.686;2023-06-10T01:13:52;3.92;;;3.05;;
60098;SDS011;62818;49.394;8.686;2023-06-10T01:14:56;4.38;;;3.05;;
60098;SDS011;62818;49.394;8.686;2023-06-10T01:15:59;3.17;;;2.60;;
60098;SDS011;62818;49.394;8.686;2023-06-10T01:17:00;4.00;;;2.72;;
60098;SDS011;62818;49.394;8.686;2023-06-10T01:18:05;5.03;;;2.92;;
60098;SDS011;62818;49.394;8.686;2023-06-10T01:19:09;3.85;;;2.92;;
60098;SDS011;62818;49.394;8.686;2023-06-10T01:20:12;3.65;;;2.85;;
60098;SDS011;62818;49.394;8.686;2023-06-10T01:21:19;8.70;;;5.73;;
60098;SDS011;62818;49.394;8.686;2023-06-10T01:22:25;4.55;;;3.83;;
60098;SDS011;62818;49.394;8.686;2023-06-10T01:23:32;3.50;;;3.00;;
60098;SDS011;62818;49.394;8.686;2023-06-10T01:24:33;6.05;;;3.00;;
60098;SDS011;62818;49.394;8.686;2023-06-10T01:25:36;7.38;;;3.40;;
60098;SDS011;62818;49.394;8.686;2023-06-10T01:26:44;4.03;;;2.97;;
60098;SDS011;62818;49.394;8.686;2023-06-10T01:27:51;2.72;;;2.47;;
60098;SDS011;62818;49.394;8.686;2023-06-10T01:28:53;3.33;;;2.53;;
60098;SDS011;62818;49.394;8.686;2023-06-10T01:30:04;4.10;;;3.00;;
60098;SDS011;62818;49.394;8.686;2023-06-10T01:32:43;2.80;;;2.50;;
60098;SDS011;62818;49.394;8.686;2023-06-10T01:33:51;6.72;;;4.40;;
60098;SDS011;62818;49.394;8.686;2023-06-10T01:34:53;5.60;;;2.50;;
60098;SDS011;62818;49.394;8.686;2023-06-10T01:35:57;6.75;;;3.15;;
60098;SDS011;62818;49.394;8.686;2023-06-10T01:37:01;4.22;;;2.97;;
60098;SDS011;62818;49.394;8.686;2023-06-10T01:38:04;4.85;;;2.92;;
60098;SDS011;62818;49.394;8.686;2023-06-10T01:39:06;3.65;;;3.08;;
60098;SDS011;62818;49.394;8.686;2023-06-10T01:40:10;6.63;;;2.72;;
60098;SDS011;62818;49.394;8.686;2023-06-10T01:41:14;3.55;;;2.88;;
60098;SDS011;62818;49.394;8.686;2023-06-10T01:42:17;5.05;;;2.90;;
60098;SDS011;62818;49.394;8.686;2023-06-10T01:43:19;4.45;;;2.60;;
60098;SDS011;62818;49.394;8.686;2023-06-10T01:44:23;5.43;;;3.22;;
60098;SDS011;62818;49.394;8.686;2023-06-10T01:45:24;3.45;;;3.00;;
60098;SDS011;62818;49.394;8.686;2023-06-10T01:46:24;4.93;;;2.83;;
60098;SDS011;62818;49.394;8.686;2023-06-10T01:47:25;2.73;;;2.40;;
60098;SDS011;62818;49.394;8.686;2023-06-10T01:48:26;3.83;;;2.70;;
60098;SDS011;62818;49.394;8.686;2023-06-10T01:49:27;3.85;;;2.70;;
60098;SDS011;62818;49.394;8.686;2023-06-10T01:51:29;6.88;;;2.90;;
60098;SDS011;62818;49.394;8.686;2023-06-10T01:52:31;6.20;;;3.38;;
60098;SDS011;62818;49.394;8.686;2023-06-10T01:53:32;4.63;;;3.33;;
60098;SDS011;62818;49.394;8.686;2023-06-10T01:54:32;5.67;;;3.10;;
60098;SDS011;62818;49.394;8.686;2023-06-10T01:55:34;5.13;;;3.78;;
60098;SDS011;62818;49.394;8.686;2023-06-10T01:56:35;5.40;;;3.10;;
60098;SDS011;62818;49.394;8.686;2023-06-10T01:57:35;5.23;;;2.70;;
60098;SDS011;62818;49.394;8.686;2023-06-10T01:58:36;3.60;;;2.97;;
60098;SDS011;62818;49.394;8.686;2023-06-10T01:59:36;4.17;;;3.43;;
60098;SDS011;62818;49.394;8.686;2023-06-10T02:00:38;3.85;;;2.83;;
60098;SDS011;62818;49.394;8.686;2023-06-10T02:01:38;3.77;;;2.80;;
60098;SDS011;62818;49.394;8.686;2023-06-10T02:02:39;3.77;;;3.10;;
60098;SDS011;62818;49.394;8.686;2023-06-10T02:03:39;3.77;;;2.80;;
60098;SDS011;62818;49.394;8.686;2023-06-10T02:04:40;4.63;;;3.13;;
60098;SDS011;62818;49.394;8.686;2023-06-10T02:05:40;4.27;;;3.20;;
60098;SDS011;62818;49.394;8.686;2023-06-10T02:06:41;5.27;;;3.07;;
60098;SDS011;62818;49.394;8.686;2023-06-10T02:07:42;10.55;;;3.22;;
60098;SDS011;62818;49.394;8.686;2023-06-10T02:08:43;3.43;;;2.73;;
60098;SDS011;62818;49.394;8.686;2023-06-10T02:09:43;3.23;;;2.87;;
60098;SDS011;62818;49.394;8.686;2023-06-10T02:10:43;5.20;;;3.20;;
60098;SDS011;62818;49.394;8.686;2023-06-10T02:11:44;4.30;;;3.00;;
60098;SDS011;62818;49.394;8.686;2023-06-10T02:12:44;4.13;;;3.43;;
60098;SDS011;62818;49.394;8.686;2023-06-10T02:13:45;3.87;;;3.00;;
60098;SDS011;62818;49.394;8.686;2023-06-10T02:14:45;3.57;;;3.00;;
60098;SDS011;62818;49.394;8.686;2023-06-10T02:15:46;4.60;;;2.73;;
60098;SDS011;62818;49.394;8.686;2023-06-10T02:16:46;4.00;;;2.90;;
60098;SDS011;62818;49.394;8.686;2023-06-10T02:17:47;5.93;;;3.05;;
60098;SDS011;62818;49.394;8.686;2023-06-10T02:19:49;4.97;;;2.92;;
60098;SDS011;62818;49.394;8.686;2023-06-10T02:20:52;6.10;;;3.10;;
60098;SDS011;62818;49.394;8.686;2023-06-10T02:21:53;8.03;;;2.97;;
60098;SDS011;62818;49.394;8.686;2023-06-10T02:22:53;4.57;;;2.90;;
60098;SDS011;62818;49.394;8.686;2023-06-10T02:23:54;4.43;;;3.20;;
60098;SDS011;62818;49.394;8.686;2023-06-10T02:24:54;3.77;;;3.40;;
60098;SDS011;62818;49.394;8.686;2023-06-10T02:25:55;7.97;;;3.37;;
60098;SDS011;62818;49.394;8.686;2023-06-10T02:26:55;6.87;;;3.30;;
60098;SDS011;62818;49.394;8.686;2023-06-10T02:27:56;4.25;;;2.95;;
60098;SDS011;62818;49.394;8.686;2023-06-10T02:28:57;4.20;;;3.23;;
60098;SDS011;62818;49.394;8.686;2023-06-10T02:29:57;3.47;;;3.00;;
60098;SDS011;62818;49.394;8.686;2023-06-10T02:30:58;4.80;;;3.38;;
60098;SDS011;62818;49.394;8.686;2023-06-10T02:31:59;6.20;;;3.30;;
60098;SDS011;62818;49.394;8.686;2023-06-10T02:32:59;3.57;;;2.83;;
60098;SDS011;62818;49.394;8.686;2023-06-10T02:34:01;3.50;;;2.95;;
60098;SDS011;62818;49.394;8.686;2023-06-10T02:35:03;4.10;;;3.03;;
60098;SDS011;62818;49.394;8.686;2023-06-10T02:36:04;5.82;;;3.05;;
60098;SDS011;62818;49.394;8.686;2023-06-10T02:37:04;4.53;;;3.55;;
60098;SDS011;62818;49.394;8.686;2023-06-10T02:38:05;3.90;;;3.17;;
60098;SDS011;62818;49.394;8.686;2023-06-10T02:39:06;10.37;;;3.10;;
60098;SDS011;62818;49.394;8.686;2023-06-10T02:40:06;8.50;;;3.03;;
60098;SDS011;62818;49.394;8.686;2023-06-10T02:41:08;5.55;;;3.45;;
60098;SDS011;62818;49.394;8.686;2023-06-10T02:42:09;3.70;;;3.00;;
60098;SDS011;62818;49.394;8.686;2023-06-10T02:43:10;5.63;;;2.72;;
60098;SDS011;62818;49.394;8.686;2023-06-10T02:44:11;4.10;;;3.37;;
60098;SDS011;62818;49.394;8.686;2023-06-10T02:45:11;5.60;;;3.20;;
60098;SDS011;62818;49.394;8.686;2023-06-10T02:46:11;3.73;;;3.00;;
60098;SDS011;62818;49.394;8.686;2023-06-10T02:47:12;4.27;;;3.30;;
60098;SDS011;62818;49.394;8.686;2023-06-10T02:48:12;4.43;;;3.20;;
60098;SDS011;62818;49.394;8.686;2023-06-10T02:49:13;3.63;;;2.97;;
60098;SDS011;62818;49.394;8.686;2023-06-10T02:50:13;7.00;;;3.37;;
60098;SDS011;62818;49.394;8.686;2023-06-10T02:51:14;8.68;;;3.70;;
60098;SDS011;62818;49.394;8.686;2023-06-10T02:52:14;4.73;;;3.40;;
60098;SDS011;62818;49.394;8.686;2023-06-10T02:53:15;3.77;;;3.40;;
60098;SDS011;62818;49.394;8.686;2023-06-10T02:54:16;4.80;;;3.08;;
60098;SDS011;62818;49.394;8.686;2023-06-10T02:55:16;4.70;;;3.00;;
60098;SDS011;62818;49.394;8.686;2023-06-10T02:56:17;3.20;;;2.80;;
60098;SDS011;62818;49.394;8.686;2023-06-10T02:58:19;5.65;;;3.30;;
60098;SDS011;62818;49.394;8.686;2023-06-10T03:00:22;7.18;;;3.45;;
60098;SDS011;62818;49.394;8.686;2023-06-10T03:01:22;4.35;;;3.47;;
60098;SDS011;62818;49.394;8.686;2023-06-10T03:02:23;3.47;;;3.17;;
60098;SDS011;62818;49.394;8.686;2023-06-10T03:03:28;4.75;;;3.33;;
60098;SDS011;62818;49.394;8.686;2023-06-10T03:04:28;3.93;;;3.30;;
60098;SDS011;62818;49.394;8.686;2023-06-10T03:05:29;4.70;;;3.30;;
60098;SDS011;62818;49.394;8.686;2023-06-10T03:06:30;8.00;;;2.78;;
60098;SDS011;62818;49.394;8.686;2023-06-10T03:07:30;4.90;;;3.53;;
60098;SDS011;62818;49.394;8.686;2023-06-10T03:09:32;4.28;;;3.22;;
60098;SDS011;62818;49.394;8.686;2023-06-10T03:10:33;4.03;;;3.63;;
60098;SDS011;62818;49.394;8.686;2023-06-10T03:11:33;4.80;;;4.07;;
60098;SDS011;62818;49.394;8.686;2023-06-10T03:12:34;5.87;;;3.57;;
60098;SDS011;62818;49.394;8.686;2023-06-10T03:13:34;8.67;;;3.77;;
60098;SDS011;62818;49.394;8.686;2023-06-10T03:14:35;4.33;;;3.50;;
60098;SDS011;62818;49.394;8.686;2023-06-10T03:15:35;3.77;;;3.33;;
60098;SDS011;62818;49.394;8.686;2023-06-10T03:16:36;4.37;;;3.53;;
60098;SDS011;62818;49.394;8.686;2023-06-10T03:17:40;3.80;;;3.40;;
60098;SDS011;62818;49.394;8.686;2023-06-10T03:18:40;4.23;;;3.80;;
60098;SDS011;62818;49.394;8.686;2023-06-10T03:19:41;4.40;;;3.60;;
60098;SDS011;62818;49.394;8.686;2023-06-10T03:20:42;4.40;;;3.57;;
60098;SDS011;62818;49.394;8.686;2023-06-10T03:21:44;4.88;;;3.70;;
60098;SDS011;62818;49.394;8.686;2023-06-10T03:22:45;3.80;;;3.50;;
60098;SDS011;62818;49.394;8.686;2023-06-10T03:23:45;6.60;;;3.10;;
60098;SDS011;62818;49.394;8.686;2023-06-10T03:24:46;4.60;;;3.03;;
60098;SDS011;62818;49.394;8.686;2023-06-10T03:25:50;5.60;;;3.63;;
60098;SDS011;62818;49.394;8.686;2023-06-10T03:26:50;8.23;;;3.77;;
60098;SDS011;62818;49.394;8.686;2023-06-10T03:27:51;3.83;;;3.33;;
60098;SDS011;62818;49.394;8.686;2023-06-10T03:28:51;5.13;;;3.47;;
60098;SDS011;62818;49.394;8.686;2023-06-10T03:29:52;4.37;;;3.50;;
60098;SDS011;62818;49.394;8.686;2023-06-10T03:30:52;5.23;;;3.47;;
60098;SDS011;62818;49.394;8.686;2023-06-10T03:31:53;4.50;;;3.47;;
60098;SDS011;62818;49.394;8.686;2023-06-10T03:32:53;4.53;;;3.87;;
60098;SDS011;62818;49.394;8.686;2023-06-10T03:33:54;5.05;;;3.38;;
60098;SDS011;62818;49.394;8.686;2023-06-10T03:34:55;6.60;;;4.17;;
60098;SDS011;62818;49.394;8.686;2023-06-10T03:35:57;4.82;;;3.10;;
60098;SDS011;62818;49.394;8.686;2023-06-10T03:36:57;3.97;;;3.60;;
60098;SDS011;62818;49.394;8.686;2023-06-10T03:37:58;6.40;;;3.70;;
60098;SDS011;62818;49.394;8.686;2023-06-10T03:38:59;5.30;;;3.93;;
60098;SDS011;62818;49.394;8.686;2023-06-10T03:39:59;6.67;;;3.57;;
60098;SDS011;62818;49.394;8.686;2023-06-10T03:40:59;4.93;;;3.80;;
60098;SDS011;62818;49.394;8.686;2023-06-10T03:42:00;4.53;;;3.47;;
60098;SDS011;62818;49.394;8.686;2023-06-10T03:43:01;12.00;;;3.80;;
60098;SDS011;62818;49.394;8.686;2023-06-10T03:44:01;6.50;;;3.70;;
60098;SDS011;62818;49.394;8.686;2023-06-10T03:45:02;7.90;;;4.13;;
60098;SDS011;62818;49.394;8.686;2023-06-10T03:46:04;8.75;;;4.35;;
60098;SDS011;62818;49.394;8.686;2023-06-10T03:47:05;8.03;;;4.23;;
60098;SDS011;62818;49.394;8.686;2023-06-10T03:48:05;6.90;;;4.07;;
60098;SDS011;62818;49.394;8.686;2023-06-10T03:49:07;8.10;;;3.83;;
60098;SDS011;62818;49.394;8.686;2023-06-10T03:50:09;6.05;;;3.58;;
60098;SDS011;62818;49.394;8.686;2023-06-10T03:51:10;9.63;;;4.22;;
60098;SDS011;62818;49.394;8.686;2023-06-10T03:52:10;6.83;;;4.10;;
60098;SDS011;62818;49.394;8.686;2023-06-10T03:53:11;10.23;;;4.20;;
60098;SDS011;62818;49.394;8.686;2023-06-10T03:54:11;6.83;;;4.00;;
60098;SDS011;62818;49.394;8.686;2023-06-10T03:55:12;12.57;;;4.87;;
60098;SDS011;62818;49.394;8.686;2023-06-10T03:56:13;6.32;;;3.97;;
60098;SDS011;62818;49.394;8.686;2023-06-10T03:57:14;7.03;;;4.17;;
60098;SDS011;62818;49.394;8.686;2023-06-10T03:58:14;20.17;;;4.83;;
60098;SDS011;62818;49.394;8.686;2023-06-10T03:59:15;13.27;;;3.73;;
60098;SDS011;62818;49.394;8.686;2023-06-10T04:00:15;10.67;;;4.60;;
60098;SDS011;62818;49.394;8.686;2023-06-10T04:01:18;11.15;;;4.57;;
60098;SDS011;62818;49.394;8.686;2023-06-10T04:02:20;8.38;;;3.80;;
60098;SDS011;62818;49.394;8.686;2023-06-10T04:03:21;9.63;;;4.63;;
60098;SDS011;62818;49.394;8.686;2023-06-10T04:04:23;7.22;;;4.18;;
60098;SDS011;62818;49.394;8.686;2023-06-10T04:05:23;9.25;;;3.80;;
60098;SDS011;62818;49.394;8.686;2023-06-10T04:06:24;10.20;;;4.67;;
60098;SDS011;62818;49.394;8.686;2023-06-10T04:07:25;11.02;;;3.85;;
60098;SDS011;62818;49.394;8.686;2023-06-10T04:08:26;8.60;;;4.63;;
60098;SDS011;62818;49.394;8.686;2023-06-10T04:09:26;10.80;;;3.97;;
60098;SDS011;62818;49.394;8.686;2023-06-10T04:10:27;12.20;;;4.67;;
60098;SDS011;62818;49.394;8.686;2023-06-10T04:11:27;7.87;;;3.73;;
60098;SDS011;62818;49.394;8.686;2023-06-10T04:12:28;8.73;;;4.73;;
60098;SDS011;62818;49.394;8.686;2023-06-10T04:13:28;7.17;;;4.60;;
60098;SDS011;62818;49.394;8.686;2023-06-10T04:14:29;10.13;;;4.37;;
60098;SDS011;62818;49.394;8.686;2023-06-10T04:15:30;8.83;;;4.10;;
60098;SDS011;62818;49.394;8.686;2023-06-10T04:16:33;9.88;;;4.25;;
60098;SDS011;62818;49.394;8.686;2023-06-10T04:17:34;5.60;;;3.97;;
60098;SDS011;62818;49.394;8.686;2023-06-10T04:18:35;7.93;;;4.05;;
60098;SDS011;62818;49.394;8.686;2023-06-10T04:19:36;5.78;;;3.95;;
60098;SDS011;62818;49.394;8.686;2023-06-10T04:20:37;10.13;;;4.15;;
60098;SDS011;62818;49.394;8.686;2023-06-10T04:21:37;7.43;;;4.53;;
60098;SDS011;62818;49.394;8.686;2023-06-10T04:22:38;10.30;;;4.27;;
60098;SDS011;62818;49.394;8.686;2023-06-10T04:23:38;8.10;;;4.07;;
60098;SDS011;62818;49.394;8.686;2023-06-10T04:24:39;11.97;;;4.70;;
60098;SDS011;62818;49.394;8.686;2023-06-10T04:25:39;7.67;;;4.10;;
60098;SDS011;62818;49.394;8.686;2023-06-10T04:26:40;6.83;;;4.00;;
60098;SDS011;62818;49.394;8.686;2023-06-10T04:27:40;7.10;;;4.53;;
60098;SDS011;62818;49.394;8.686;2023-06-10T04:28:42;9.67;;;4.30;;
60098;SDS011;62818;49.394;8.686;2023-06-10T04:29:43;5.90;;;3.80;;
60098;SDS011;62818;49.394;8.686;2023-06-10T04:30:44;5.43;;;4.03;;
60098;SDS011;62818;49.394;8.686;2023-06-10T04:31:45;9.30;;;3.97;;
60098;SDS011;62818;49.394;8.686;2023-06-10T04:32:47;10.60;;;4.22;;
60098;SDS011;62818;49.394;8.686;2023-06-10T04:33:47;7.93;;;3.95;;
60098;SDS011;62818;49.394;8.686;2023-06-10T04:34:48;6.07;;;4.00;;
60098;SDS011;62818;49.394;8.686;2023-06-10T04:35:49;6.07;;;4.18;;
60098;SDS011;62818;49.394;8.686;2023-06-10T04:36:50;6.30;;;3.75;;
60098;SDS011;62818;49.394;8.686;2023-06-10T04:37:51;6.47;;;4.30;;
60098;SDS011;62818;49.394;8.686;2023-06-10T04:38:51;7.57;;;4.20;;
60098;SDS011;62818;49.394;8.686;2023-06-10T04:39:52;6.17;;;3.90;;
60098;SDS011;62818;49.394;8.686;2023-06-10T04:40:52;7.33;;;4.20;;
60098;SDS011;62818;49.394;8.686;2023-06-10T04:41:53;7.90;;;3.73;;
60098;SDS011;62818;49.394;8.686;2023-06-10T04:42:53;5.43;;;4.00;;
60098;SDS011;62818;49.394;8.686;2023-06-10T04:43:54;13.20;;;4.17;;
60098;SDS011;62818;49.394;8.686;2023-06-10T04:44:54;5.93;;;3.67;;
60098;SDS011;62818;49.394;8.686;2023-06-10T04:45:55;4.40;;;3.90;;
60098;SDS011;62818;49.394;8.686;2023-06-10T04:46:56;5.38;;;4.18;;
60098;SDS011;62818;49.394;8.686;2023-06-10T04:47:57;12.07;;;3.83;;
60098;SDS011;62818;49.394;8.686;2023-06-10T04:48:58;6.40;;;4.38;;
60098;SDS011;62818;49.394;8.686;2023-06-10T04:49:59;9.03;;;3.73;;
60098;SDS011;62818;49.394;8.686;2023-06-10T04:51:00;9.05;;;4.20;;
60098;SDS011;62818;49.394;8.686;2023-06-10T04:52:01;6.80;;;4.33;;
60098;SDS011;62818;49.394;8.686;2023-06-10T04:53:04;6.90;;;4.50;;
60098;SDS011;62818;49.394;8.686;2023-06-10T04:54:05;5.47;;;4.30;;
60098;SDS011;62818;49.394;8.686;2023-06-10T04:55:06;4.72;;;3.95;;
60098;SDS011;62818;49.394;8.686;2023-06-10T04:56:08;5.10;;;3.80;;
60098;SDS011;62818;49.394;8.686;2023-06-10T04:57:08;6.75;;;4.43;;
60098;SDS011;62818;49.394;8.686;2023-06-10T04:58:11;6.70;;;3.83;;
60098;SDS011;62818;49.394;8.686;2023-06-10T04:59:12;5.60;;;3.72;;
60098;SDS011;62818;49.394;8.686;2023-06-10T05:00:14;10.50;;;4.10;;
60098;SDS011;62818;49.394;8.686;2023-06-10T05:01:15;6.32;;;4.20;;
60098;SDS011;62818;49.394;8.686;2023-06-10T05:02:15;6.33;;;4.43;;
60098;SDS011;62818;49.394;8.686;2023-06-10T05:03:16;6.17;;;4.40;;
60098;SDS011;62818;49.394;8.686;2023-06-10T05:04:16;7.53;;;3.97;;
60098;SDS011;62818;49.394;8.686;2023-06-10T05:05:17;6.27;;;4.17;;
60098;SDS011;62818;49.394;8.686;2023-06-10T05:06:18;6.70;;;4.10;;
60098;SDS011;62818;49.394;8.686;2023-06-10T05:07:18;6.50;;;5.17;;
60098;SDS011;62818;49.394;8.686;2023-06-10T05:08:19;7.00;;;4.93;;
60098;SDS011;62818;49.394;8.686;2023-06-10T05:09:20;5.25;;;4.50;;
60098;SDS011;62818;49.394;8.686;2023-06-10T05:10:21;8.27;;;4.25;;
60098;SDS011;62818;49.394;8.686;2023-06-10T05:11:21;4.53;;;3.77;;
60098;SDS011;62818;49.394;8.686;2023-06-10T05:12:22;7.03;;;4.63;;
60098;SDS011;62818;49.394;8.686;2023-06-10T05:13:22;5.33;;;3.73;;
60098;SDS011;62818;49.394;8.686;2023-06-10T05:14:23;4.80;;;3.50;;
60098;SDS011;62818;49.394;8.686;2023-06-10T05:15:23;5.07;;;3.83;;
60098;SDS011;62818;49.394;8.686;2023-06-10T05:16:24;4.28;;;3.72;;
60098;SDS011;62818;49.394;8.686;2023-06-10T05:17:25;5.67;;;4.10;;
60098;SDS011;62818;49.394;8.686;2023-06-10T05:18:25;5.03;;;3.77;;
60098;SDS011;62818;49.394;8.686;2023-06-10T05:19:26;10.02;;;4.60;;
60098;SDS011;62818;49.394;8.686;2023-06-10T05:20:27;9.05;;;4.35;;
60098;SDS011;62818;49.394;8.686;2023-06-10T05:21:28;7.90;;;4.65;;
60098;SDS011;62818;49.394;8.686;2023-06-10T05:22:29;5.47;;;4.30;;
60098;SDS011;62818;49.394;8.686;2023-06-10T05:23:29;6.90;;;4.00;;
60098;SDS011;62818;49.394;8.686;2023-06-10T05:24:30;5.47;;;3.90;;
60098;SDS011;62818;49.394;8.686;2023-06-10T05:25:30;5.57;;;3.93;;
60098;SDS011;62818;49.394;8.686;2023-06-10T05:26:32;7.22;;;4.18;;
60098;SDS011;62818;49.394;8.686;2023-06-10T05:27:37;7.05;;;3.88;;
60098;SDS011;62818;49.394;8.686;2023-06-10T05:28:38;7.63;;;4.15;;
60098;SDS011;62818;49.394;8.686;2023-06-10T05:29:38;5.93;;;4.10;;
60098;SDS011;62818;49.394;8.686;2023-06-10T05:30:38;5.60;;;4.37;;
60098;SDS011;62818;49.394;8.686;2023-06-10T05:31:39;4.50;;;3.60;;
60098;SDS011;62818;49.394;8.686;2023-06-10T05:32:40;7.13;;;3.67;;
60098;SDS011;62818;49.394;8.686;2023-06-10T05:33:40;4.90;;;3.57;;
60098;SDS011;62818;49.394;8.686;2023-06-10T05:34:40;6.00;;;3.80;;
60098;SDS011;62818;49.394;8.686;2023-06-10T05:35:41;7.17;;;3.53;;
60098;SDS011;62818;49.394;8.686;2023-06-10T05:36:42;6.30;;;4.13;;
60098;SDS011;62818;49.394;8.686;2023-06-10T05:37:42;4.10;;;3.60;;
60098;SDS011;62818;49.394;8.686;2023-06-10T05:38:43;6.15;;;3.78;;
60098;SDS011;62818;49.394;8.686;2023-06-10T05:39:44;5.37;;;3.60;;
60098;SDS011;62818;49.394;8.686;2023-06-10T05:40:45;12.17;;;5.57;;
60098;SDS011;62818;49.394;8.686;2023-06-10T05:41:46;6.78;;;4.25;;
60098;SDS011;62818;49.394;8.686;2023-06-10T05:42:46;7.13;;;4.30;;
60098;SDS011;62818;49.394;8.686;2023-06-10T05:43:47;12.17;;;5.90;;
60098;SDS011;62818;49.394;8.686;2023-06-10T05:44:47;7.93;;;4.50;;
60098;SDS011;62818;49.394;8.686;2023-06-10T05:45:48;4.87;;;4.20;;
60098;SDS011;62818;49.394;8.686;2023-06-10T05:46:48;6.73;;;4.03;;
60098;SDS011;62818;49.394;8.686;2023-06-10T05:47:49;5.70;;;4.10;;
60098;SDS011;62818;49.394;8.686;2023-06-10T05:48:49;5.97;;;4.20;;
60098;SDS011;62818;49.394;8.686;2023-06-10T05:49:50;9.93;;;4.40;;
60098;SDS011;62818;49.394;8.686;2023-06-10T05:51:52;6.72;;;4.00;;
60098;SDS011;62818;49.394;8.686;2023-06-10T05:52:52;5.50;;;4.10;;
60098;SDS011;62818;49.394;8.686;2023-06-10T05:53:54;5.60;;;4.18;;
60098;SDS011;62818;49.394;8.686;2023-06-10T05:54:55;8.77;;;4.27;;
60098;SDS011;62818;49.394;8.686;2023-06-10T05:55:55;11.02;;;4.40;;
60098;SDS011;62818;49.394;8.686;2023-06-10T05:56:57;4.45;;;3.92;;
60098;SDS011;62818;49.394;8.686;2023-06-10T05:57:58;5.33;;;4.07;;
60098;SDS011;62818;49.394;8.686;2023-06-10T05:59:00;6.22;;;3.88;;
60098;SDS011;62818;49.394;8.686;2023-06-10T06:00:00;6.57;;;4.30;;
60098;SDS011;62818;49.394;8.686;2023-06-10T06:01:01;5.80;;;4.30;;
60098;SDS011;62818;49.394;8.686;2023-06-10T06:02:01;6.63;;;3.93;;
60098;SDS011;62818;49.394;8.686;2023-06-10T06:03:02;5.63;;;3.80;;
60098;SDS011;62818;49.394;8.686;2023-06-10T06:04:02;5.47;;;4.03;;
60098;SDS011;62818;49.394;8.686;2023-06-10T06:05:03;6.20;;;4.50;;
60098;SDS011;62818;49.394;8.686;2023-06-10T06:06:04;7.25;;;4.32;;
60098;SDS011;62818;49.394;8.686;2023-06-10T06:07:05;6.97;;;4.07;;
60098;SDS011;62818;49.394;8.686;2023-06-10T06:08:05;7.30;;;4.00;;
60098;SDS011;62818;49.394;8.686;2023-06-10T06:09:07;4.85;;;3.80;;
60098;SDS011;62818;49.394;8.686;2023-06-10T06:10:07;8.37;;;4.40;;
60098;SDS011;62818;49.394;8.686;2023-06-10T06:11:08;4.40;;;3.90;;
60098;SDS011;62818;49.394;8.686;2023-06-10T06:12:08;6.53;;;4.10;;
60098;SDS011;62818;49.394;8.686;2023-06-10T06:13:09;9.95;;;6.10;;
60098;SDS011;62818;49.394;8.686;2023-06-10T06:14:10;11.27;;;5.10;;
60098;SDS011;62818;49.394;8.686;2023-06-10T06:15:10;7.40;;;4.20;;
60098;SDS011;62818;49.394;8.686;2023-06-10T06:16:11;9.55;;;5.43;;
60098;SDS011;62818;49.394;8.686;2023-06-10T06:17:12;6.50;;;4.20;;
60098;SDS011;62818;49.394;8.686;2023-06-10T06:18:12;5.43;;;4.07;;
60098;SDS011;62818;49.394;8.686;2023-06-10T06:19:13;6.87;;;4.07;;
60098;SDS011;62818;49.394;8.686;2023-06-10T06:20:13;8.03;;;4.10;;
60098;SDS011;62818;49.394;8.686;2023-06-10T06:21:14;6.47;;;4.53;;
60098;SDS011;62818;49.394;8.686;2023-06-10T06:22:14;4.30;;;3.77;;
60098;SDS011;62818;49.394;8.686;2023-06-10T06:23:15;6.47;;;4.10;;